sensor_id;sensor_type;location;lat;lon;timestamp;temperature;humidity
2465;DHT22;1244;54.326;10.074;2023-07-08T00:01:54;14.70;99.90
2465;DHT22;1244;54.326;10.074;2023-07-08T00:04:20;14.70;99.90
2465;DHT22;1244;54.326;10.074;2023-07-08T00:06:46;14.80;99.90
2465;DHT22;1244;54.326;10.074;2023-07-08T00:09:11;14.80;99.90
2465;DHT22;1244;54.326;10.074;2023-07-08T00:11:37;14.80;99.90
2465;DHT22;1244;54.326;10.074;2023-07-08T00:14:03;14.80;99.90
2465;DHT22;1244;54.326;10.074;2023-07-08T00:16:28;14.80;99.90
2465;DHT22;1244;54.326;10.074;2023-07-08T00:18:54;14.70;99.90
2465;DHT22;1244;54.326;10.074;2023-07-08T00:21:19;14.60;99.90
2465;DHT22;1244;54.326;10.074;2023-07-08T00:23:49;14.60;99.90
2465;DHT22;1244;54.326;10.074;2023-07-08T00:26:25;14.60;99.90
2465;DHT22;1244;54.326;10.074;2023-07-08T00:28:52;14.60;99.90
2465;DHT22;1244;54.326;10.074;2023-07-08T00:31:18;14.50;99.90
2465;DHT22;1244;54.326;10.074;2023-07-08T00:33:55;14.60;99.90
2465;DHT22;1244;54.326;10.074;2023-07-08T00:36:22;14.50;99.90
2465;DHT22;1244;54.326;10.074;2023-07-08T00:38:48;14.70;99.90
2465;DHT22;1244;54.326;10.074;2023-07-08T00:43:50;14.50;99.90
2465;DHT22;1244;54.326;10.074;2023-07-08T00:47:05;14.40;99.90
2465;DHT22;1244;54.326;10.074;2023-07-08T00:49:30;14.40;99.90
2465;DHT22;1244;54.326;10.074;2023-07-08T00:52:18;14.30;99.90
2465;DHT22;1244;54.326;10.074;2023-07-08T00:54:45;14.40;99.90
2465;DHT22;1244;54.326;10.074;2023-07-08T00:57:11;14.20;99.90
2465;DHT22;1244;54.326;10.074;2023-07-08T00:59:42;14.20;99.90
2465;DHT22;1244;54.326;10.074;2023-07-08T01:02:11;14.20;99.90
2465;DHT22;1244;54.326;10.074;2023-07-08T01:04:43;14.30;99.90
2465;DHT22;1244;54.326;10.074;2023-07-08T01:07:12;14.20;99.90
2465;DHT22;1244;54.326;10.074;2023-07-08T01:09:43;14.20;99.90
2465;DHT22;1244;54.326;10.074;2023-07-08T01:12:16;14.30;99.90
2465;DHT22;1244;54.326;10.074;2023-07-08T01:14:44;14.20;99.90
2465;DHT22;1244;54.326;10.074;2023-07-08T01:17:11;14.10;99.90
2465;DHT22;1244;54.326;10.074;2023-07-08T01:19:41;14.10;99.90
2465;DHT22;1244;54.326;10.074;2023-07-08T01:22:08;14.10;99.90
2465;DHT22;1244;54.326;10.074;2023-07-08T01:24:36;14.00;99.90
2465;DHT22;1244;54.326;10.074;2023-07-08T01:27:05;14.10;99.90
2465;DHT22;1244;54.326;10.074;2023-07-08T01:29:31;14.00;99.90
2465;DHT22;1244;54.326;10.074;2023-07-08T01:31:58;14.00;99.90
2465;DHT22;1244;54.326;10.074;2023-07-08T01:34:24;13.80;99.90
2465;DHT22;1244;54.326;10.074;2023-07-08T01:36:52;13.80;99.90
2465;DHT22;1244;54.326;10.074;2023-07-08T01:39:20;13.80;99.90
2465;DHT22;1244;54.326;10.074;2023-07-08T01:41:47;13.80;99.90
2465;DHT22;1244;54.326;10.074;2023-07-08T01:44:30;13.90;99.90
2465;DHT22;1244;54.326;10.074;2023-07-08T01:47:05;13.90;99.90
2465;DHT22;1244;54.326;10.074;2023-07-08T01:49:33;13.80;99.90
2465;DHT22;1244;54.326;10.074;2023-07-08T01:52:01;13.80;99.90
2465;DHT22;1244;54.326;10.074;2023-07-08T01:54:27;13.70;99.90
2465;DHT22;1244;54.326;10.074;2023-07-08T01:56:56;13.70;99.90
2465;DHT22;1244;54.326;10.074;2023-07-08T01:59:22;13.70;99.90
2465;DHT22;1244;54.326;10.074;2023-07-08T02:01:48;13.60;99.90
2465;DHT22;1244;54.326;10.074;2023-07-08T02:04:15;13.60;99.90
2465;DHT22;1244;54.326;10.074;2023-07-08T02:06:41;13.60;99.90
2465;DHT22;1244;54.326;10.074;2023-07-08T02:09:07;13.60;99.90
2465;DHT22;1244;54.326;10.074;2023-07-08T02:11:33;13.50;99.90
2465;DHT22;1244;54.326;10.074;2023-07-08T02:13:58;13.40;99.90
2465;DHT22;1244;54.326;10.074;2023-07-08T02:16:26;13.50;99.90
2465;DHT22;1244;54.326;10.074;2023-07-08T02:18:51;13.50;99.90
2465;DHT22;1244;54.326;10.074;2023-07-08T02:21:16;13.50;99.90
2465;DHT22;1244;54.326;10.074;2023-07-08T02:23:44;13.50;99.90
2465;DHT22;1244;54.326;10.074;2023-07-08T02:26:10;13.50;99.90
2465;DHT22;1244;54.326;10.074;2023-07-08T02:28:35;13.50;99.90
2465;DHT22;1244;54.326;10.074;2023-07-08T02:31:04;13.30;99.90
2465;DHT22;1244;54.326;10.074;2023-07-08T02:33:29;13.30;99.90
2465;DHT22;1244;54.326;10.074;2023-07-08T02:35:58;13.40;99.90
2465;DHT22;1244;54.326;10.074;2023-07-08T02:38:25;13.50;99.90
2465;DHT22;1244;54.326;10.074;2023-07-08T02:40:50;13.50;99.90
2465;DHT22;1244;54.326;10.074;2023-07-08T02:43:16;13.40;99.90
2465;DHT22;1244;54.326;10.074;2023-07-08T02:45:41;13.30;99.90
2465;DHT22;1244;54.326;10.074;2023-07-08T02:48:07;13.30;99.90
2465;DHT22;1244;54.326;10.074;2023-07-08T02:50:32;13.30;99.90
2465;DHT22;1244;54.326;10.074;2023-07-08T02:52:58;13.30;99.90
2465;DHT22;1244;54.326;10.074;2023-07-08T02:55:23;13.30;99.90
2465;DHT22;1244;54.326;10.074;2023-07-08T02:57:49;13.40;99.90
2465;DHT22;1244;54.326;10.074;2023-07-08T03:00:15;13.40;99.90
2465;DHT22;1244;54.326;10.074;2023-07-08T03:02:40;13.40;99.90
2465;DHT22;1244;54.326;10.074;2023-07-08T03:05:06;13.30;99.90
2465;DHT22;1244;54.326;10.074;2023-07-08T03:07:32;13.20;99.90
2465;DHT22;1244;54.326;10.074;2023-07-08T03:09:57;13.30;99.90
2465;DHT22;1244;54.326;10.074;2023-07-08T03:12:23;13.30;99.90
2465;DHT22;1244;54.326;10.074;2023-07-08T03:14:48;13.30;99.90
2465;DHT22;1244;54.326;10.074;2023-07-08T03:17:14;13.30;99.90
2465;DHT22;1244;54.326;10.074;2023-07-08T03:19:40;13.30;99.90
2465;DHT22;1244;54.326;10.074;2023-07-08T03:22:05;13.30;99.90
2465;DHT22;1244;54.326;10.074;2023-07-08T03:24:32;13.20;99.90
2465;DHT22;1244;54.326;10.074;2023-07-08T03:26:58;13.30;99.90
2465;DHT22;1244;54.326;10.074;2023-07-08T03:29:26;13.30;99.90
2465;DHT22;1244;54.326;10.074;2023-07-08T03:31:51;13.30;99.90
2465;DHT22;1244;54.326;10.074;2023-07-08T03:34:17;13.10;99.90
2465;DHT22;1244;54.326;10.074;2023-07-08T03:36:48;13.20;99.90
2465;DHT22;1244;54.326;10.074;2023-07-08T03:39:18;13.20;99.90
2465;DHT22;1244;54.326;10.074;2023-07-08T03:41:44;13.20;99.90
2465;DHT22;1244;54.326;10.074;2023-07-08T03:44:11;13.10;99.90
2465;DHT22;1244;54.326;10.074;2023-07-08T03:46:36;13.20;99.90
2465;DHT22;1244;54.326;10.074;2023-07-08T03:49:02;13.20;99.90
2465;DHT22;1244;54.326;10.074;2023-07-08T03:51:31;13.20;99.90
2465;DHT22;1244;54.326;10.074;2023-07-08T03:53:57;13.30;99.90
2465;DHT22;1244;54.326;10.074;2023-07-08T03:56:23;13.20;99.90
2465;DHT22;1244;54.326;10.074;2023-07-08T03:58:50;13.30;99.90
2465;DHT22;1244;54.326;10.074;2023-07-08T04:01:18;13.30;99.90
2465;DHT22;1244;54.326;10.074;2023-07-08T04:03:44;13.30;99.90
2465;DHT22;1244;54.326;10.074;2023-07-08T04:06:10;13.40;99.90
2465;DHT22;1244;54.326;10.074;2023-07-08T04:08:36;13.40;99.90
2465;DHT22;1244;54.326;10.074;2023-07-08T04:11:01;13.40;99.90
2465;DHT22;1244;54.326;10.074;2023-07-08T04:13:27;13.40;99.90
2465;DHT22;1244;54.326;10.074;2023-07-08T04:16:04;13.50;99.90
2465;DHT22;1244;54.326;10.074;2023-07-08T04:18:30;13.50;99.90
2465;DHT22;1244;54.326;10.074;2023-07-08T04:20:56;13.60;99.90
2465;DHT22;1244;54.326;10.074;2023-07-08T04:23:22;13.60;99.90
2465;DHT22;1244;54.326;10.074;2023-07-08T04:25:49;13.60;99.90
2465;DHT22;1244;54.326;10.074;2023-07-08T04:28:15;13.70;99.90
2465;DHT22;1244;54.326;10.074;2023-07-08T04:30:42;13.70;99.90
2465;DHT22;1244;54.326;10.074;2023-07-08T04:33:11;13.70;99.90
2465;DHT22;1244;54.326;10.074;2023-07-08T04:35:38;13.80;99.90
2465;DHT22;1244;54.326;10.074;2023-07-08T04:38:14;13.90;99.90
2465;DHT22;1244;54.326;10.074;2023-07-08T04:40:41;13.90;99.90
2465;DHT22;1244;54.326;10.074;2023-07-08T04:43:06;14.00;99.90
2465;DHT22;1244;54.326;10.074;2023-07-08T04:45:32;14.00;99.90
2465;DHT22;1244;54.326;10.074;2023-07-08T04:47:58;14.10;99.90
2465;DHT22;1244;54.326;10.074;2023-07-08T04:50:24;14.10;99.90
2465;DHT22;1244;54.326;10.074;2023-07-08T04:52:50;14.30;99.90
2465;DHT22;1244;54.326;10.074;2023-07-08T04:55:15;14.40;99.90
2465;DHT22;1244;54.326;10.074;2023-07-08T04:57:41;14.50;99.90
2465;DHT22;1244;54.326;10.074;2023-07-08T05:00:09;14.50;99.90
2465;DHT22;1244;54.326;10.074;2023-07-08T05:02:37;14.60;99.90
2465;DHT22;1244;54.326;10.074;2023-07-08T05:05:03;14.70;99.90
2465;DHT22;1244;54.326;10.074;2023-07-08T05:07:28;14.80;99.90
2465;DHT22;1244;54.326;10.074;2023-07-08T05:09:54;14.80;99.90
2465;DHT22;1244;54.326;10.074;2023-07-08T05:12:21;14.90;99.90
2465;DHT22;1244;54.326;10.074;2023-07-08T05:14:47;15.00;99.90
2465;DHT22;1244;54.326;10.074;2023-07-08T05:17:12;15.20;99.90
2465;DHT22;1244;54.326;10.074;2023-07-08T05:19:38;15.30;99.90
2465;DHT22;1244;54.326;10.074;2023-07-08T05:22:03;15.40;99.90
2465;DHT22;1244;54.326;10.074;2023-07-08T05:24:29;15.70;99.90
2465;DHT22;1244;54.326;10.074;2023-07-08T05:26:54;15.80;99.90
2465;DHT22;1244;54.326;10.074;2023-07-08T05:29:20;16.00;99.90
2465;DHT22;1244;54.326;10.074;2023-07-08T05:31:45;16.10;99.90
2465;DHT22;1244;54.326;10.074;2023-07-08T05:34:11;16.30;99.90
2465;DHT22;1244;54.326;10.074;2023-07-08T05:36:37;16.50;99.90
2465;DHT22;1244;54.326;10.074;2023-07-08T05:39:02;16.70;99.90
2465;DHT22;1244;54.326;10.074;2023-07-08T05:41:28;16.90;99.90
2465;DHT22;1244;54.326;10.074;2023-07-08T05:43:53;17.00;99.90
2465;DHT22;1244;54.326;10.074;2023-07-08T05:46:19;17.20;99.90
2465;DHT22;1244;54.326;10.074;2023-07-08T05:48:44;17.40;99.90
2465;DHT22;1244;54.326;10.074;2023-07-08T05:51:10;17.50;99.90
2465;DHT22;1244;54.326;10.074;2023-07-08T05:53:35;17.70;99.90
2465;DHT22;1244;54.326;10.074;2023-07-08T05:56:02;17.80;99.90
2465;DHT22;1244;54.326;10.074;2023-07-08T05:58:27;18.00;99.90
2465;DHT22;1244;54.326;10.074;2023-07-08T06:00:57;18.10;99.90
2465;DHT22;1244;54.326;10.074;2023-07-08T06:03:23;18.10;99.90
2465;DHT22;1244;54.326;10.074;2023-07-08T06:05:48;18.20;99.90
2465;DHT22;1244;54.326;10.074;2023-07-08T06:08:14;18.40;99.90
2465;DHT22;1244;54.326;10.074;2023-07-08T06:10:44;18.50;99.90
2465;DHT22;1244;54.326;10.074;2023-07-08T06:13:10;18.50;99.90
2465;DHT22;1244;54.326;10.074;2023-07-08T06:15:36;18.60;99.90
2465;DHT22;1244;54.326;10.074;2023-07-08T06:18:02;18.70;99.90
2465;DHT22;1244;54.326;10.074;2023-07-08T06:20:28;18.80;99.90
2465;DHT22;1244;54.326;10.074;2023-07-08T06:22:54;18.90;99.90
2465;DHT22;1244;54.326;10.074;2023-07-08T06:25:20;19.00;99.90
2465;DHT22;1244;54.326;10.074;2023-07-08T06:27:45;19.30;99.90
2465;DHT22;1244;54.326;10.074;2023-07-08T06:30:11;19.30;99.90
2465;DHT22;1244;54.326;10.074;2023-07-08T06:32:37;19.40;99.90
2465;DHT22;1244;54.326;10.074;2023-07-08T06:35:02;19.40;99.90
2465;DHT22;1244;54.326;10.074;2023-07-08T06:37:28;19.60;99.90
2465;DHT22;1244;54.326;10.074;2023-07-08T06:39:54;19.60;99.90
2465;DHT22;1244;54.326;10.074;2023-07-08T06:42:19;19.70;99.90
2465;DHT22;1244;54.326;10.074;2023-07-08T06:44:45;19.70;99.90
2465;DHT22;1244;54.326;10.074;2023-07-08T06:47:17;19.90;99.90
2465;DHT22;1244;54.326;10.074;2023-07-08T06:49:43;19.90;99.90
2465;DHT22;1244;54.326;10.074;2023-07-08T06:52:08;20.00;99.90
2465;DHT22;1244;54.326;10.074;2023-07-08T06:54:34;20.10;99.90
2465;DHT22;1244;54.326;10.074;2023-07-08T06:56:59;20.10;99.90
2465;DHT22;1244;54.326;10.074;2023-07-08T06:59:25;20.20;99.90
2465;DHT22;1244;54.326;10.074;2023-07-08T07:01:50;20.30;99.90
2465;DHT22;1244;54.326;10.074;2023-07-08T07:04:16;20.40;99.90
2465;DHT22;1244;54.326;10.074;2023-07-08T07:06:41;20.60;99.90
2465;DHT22;1244;54.326;10.074;2023-07-08T07:09:07;20.50;99.90
2465;DHT22;1244;54.326;10.074;2023-07-08T07:11:32;20.60;99.90
2465;DHT22;1244;54.326;10.074;2023-07-08T07:13:58;20.60;99.90
2465;DHT22;1244;54.326;10.074;2023-07-08T07:16:23;20.80;99.90
2465;DHT22;1244;54.326;10.074;2023-07-08T07:18:49;20.80;99.90
2465;DHT22;1244;54.326;10.074;2023-07-08T07:21:17;20.80;99.90
2465;DHT22;1244;54.326;10.074;2023-07-08T07:23:42;20.90;99.90
2465;DHT22;1244;54.326;10.074;2023-07-08T07:26:08;21.00;99.90
2465;DHT22;1244;54.326;10.074;2023-07-08T07:28:33;21.10;99.90
2465;DHT22;1244;54.326;10.074;2023-07-08T07:30:59;21.30;99.90
2465;DHT22;1244;54.326;10.074;2023-07-08T07:33:26;21.30;99.90
2465;DHT22;1244;54.326;10.074;2023-07-08T07:35:51;21.50;99.90
2465;DHT22;1244;54.326;10.074;2023-07-08T07:38:17;21.60;99.90
2465;DHT22;1244;54.326;10.074;2023-07-08T07:40:44;21.60;99.90
2465;DHT22;1244;54.326;10.074;2023-07-08T07:43:10;21.80;99.90
2465;DHT22;1244;54.326;10.074;2023-07-08T07:45:36;21.90;99.90
2465;DHT22;1244;54.326;10.074;2023-07-08T07:48:01;21.90;99.90
2465;DHT22;1244;54.326;10.074;2023-07-08T07:50:27;21.90;99.90
2465;DHT22;1244;54.326;10.074;2023-07-08T07:52:53;22.10;99.90
2465;DHT22;1244;54.326;10.074;2023-07-08T07:55:18;22.20;99.90
2465;DHT22;1244;54.326;10.074;2023-07-08T07:57:44;22.30;99.90
2465;DHT22;1244;54.326;10.074;2023-07-08T08:00:12;22.30;99.90
2465;DHT22;1244;54.326;10.074;2023-07-08T08:02:40;22.40;99.90
2465;DHT22;1244;54.326;10.074;2023-07-08T08:05:05;22.40;99.90
2465;DHT22;1244;54.326;10.074;2023-07-08T08:07:31;22.80;99.90
2465;DHT22;1244;54.326;10.074;2023-07-08T08:09:56;22.90;99.90
2465;DHT22;1244;54.326;10.074;2023-07-08T08:12:22;22.90;99.90
2465;DHT22;1244;54.326;10.074;2023-07-08T08:14:50;23.10;99.90
2465;DHT22;1244;54.326;10.074;2023-07-08T08:17:16;23.10;99.90
2465;DHT22;1244;54.326;10.074;2023-07-08T08:19:41;23.20;99.90
2465;DHT22;1244;54.326;10.074;2023-07-08T08:22:07;23.20;99.90
2465;DHT22;1244;54.326;10.074;2023-07-08T08:24:33;23.30;99.90
2465;DHT22;1244;54.326;10.074;2023-07-08T08:26:59;23.30;99.90
2465;DHT22;1244;54.326;10.074;2023-07-08T08:29:25;23.50;99.90
2465;DHT22;1244;54.326;10.074;2023-07-08T08:31:51;23.60;99.90
2465;DHT22;1244;54.326;10.074;2023-07-08T08:34:17;23.70;99.90
2465;DHT22;1244;54.326;10.074;2023-07-08T08:36:42;23.80;99.90
2465;DHT22;1244;54.326;10.074;2023-07-08T08:39:08;23.90;99.90
2465;DHT22;1244;54.326;10.074;2023-07-08T08:41:36;24.00;99.90
2465;DHT22;1244;54.326;10.074;2023-07-08T08:44:03;24.10;99.90
2465;DHT22;1244;54.326;10.074;2023-07-08T08:46:39;24.00;99.90
2465;DHT22;1244;54.326;10.074;2023-07-08T08:49:18;24.20;99.90
2465;DHT22;1244;54.326;10.074;2023-07-08T08:51:48;24.40;99.90
2465;DHT22;1244;54.326;10.074;2023-07-08T08:54:14;24.60;99.90
2465;DHT22;1244;54.326;10.074;2023-07-08T08:59:31;24.70;99.90
2465;DHT22;1244;54.326;10.074;2023-07-08T09:02:00;24.70;99.90
2465;DHT22;1244;54.326;10.074;2023-07-08T09:04:32;24.90;99.90
2465;DHT22;1244;54.326;10.074;2023-07-08T09:07:06;25.10;99.90
2465;DHT22;1244;54.326;10.074;2023-07-08T09:09:42;25.10;99.90
2465;DHT22;1244;54.326;10.074;2023-07-08T09:12:14;25.20;99.90
2465;DHT22;1244;54.326;10.074;2023-07-08T09:14:42;25.30;99.90
2465;DHT22;1244;54.326;10.074;2023-07-08T09:17:20;25.70;99.90
2465;DHT22;1244;54.326;10.074;2023-07-08T09:22:40;25.50;99.90
2465;DHT22;1244;54.326;10.074;2023-07-08T09:25:26;25.90;99.90
2465;DHT22;1244;54.326;10.074;2023-07-08T09:27:53;25.70;99.90
2465;DHT22;1244;54.326;10.074;2023-07-08T09:30:21;26.00;99.90
2465;DHT22;1244;54.326;10.074;2023-07-08T09:32:47;25.90;99.90
2465;DHT22;1244;54.326;10.074;2023-07-08T09:35:23;26.00;99.90
2465;DHT22;1244;54.326;10.074;2023-07-08T09:37:49;25.80;99.90
2465;DHT22;1244;54.326;10.074;2023-07-08T09:40:23;26.00;99.90
2465;DHT22;1244;54.326;10.074;2023-07-08T09:43:01;26.20;99.90
2465;DHT22;1244;54.326;10.074;2023-07-08T09:45:29;26.60;99.90
2465;DHT22;1244;54.326;10.074;2023-07-08T09:48:16;26.70;99.90
2465;DHT22;1244;54.326;10.074;2023-07-08T09:50:43;26.50;99.90
2465;DHT22;1244;54.326;10.074;2023-07-08T09:53:13;26.80;99.90
2465;DHT22;1244;54.326;10.074;2023-07-08T09:55:40;26.90;99.90
2465;DHT22;1244;54.326;10.074;2023-07-08T09:58:11;27.00;99.90
2465;DHT22;1244;54.326;10.074;2023-07-08T10:00:40;27.00;99.90
2465;DHT22;1244;54.326;10.074;2023-07-08T10:03:13;27.20;99.90
2465;DHT22;1244;54.326;10.074;2023-07-08T10:05:42;27.30;99.90
2465;DHT22;1244;54.326;10.074;2023-07-08T10:08:19;27.00;99.90
2465;DHT22;1244;54.326;10.074;2023-07-08T10:10:48;27.30;99.90
2465;DHT22;1244;54.326;10.074;2023-07-08T10:13:24;27.40;99.90
2465;DHT22;1244;54.326;10.074;2023-07-08T10:16:15;27.50;99.90
2465;DHT22;1244;54.326;10.074;2023-07-08T10:18:41;27.60;99.90
2465;DHT22;1244;54.326;10.074;2023-07-08T10:24:21;28.00;99.90
2465;DHT22;1244;54.326;10.074;2023-07-08T10:27:16;28.50;99.90
2465;DHT22;1244;54.326;10.074;2023-07-08T10:29:50;28.40;99.90
2465;DHT22;1244;54.326;10.074;2023-07-08T10:40:33;28.70;99.90
2465;DHT22;1244;54.326;10.074;2023-07-08T10:43:31;28.80;99.90
2465;DHT22;1244;54.326;10.074;2023-07-08T10:49:05;29.30;99.90
2465;DHT22;1244;54.326;10.074;2023-07-08T10:55:07;29.40;99.90
2465;DHT22;1244;54.326;10.074;2023-07-08T11:00:57;29.50;99.90
2465;DHT22;1244;54.326;10.074;2023-07-08T11:06:18;29.80;99.90
2465;DHT22;1244;54.326;10.074;2023-07-08T11:08:48;29.90;99.90
2465;DHT22;1244;54.326;10.074;2023-07-08T11:14:13;29.80;99.90
2465;DHT22;1244;54.326;10.074;2023-07-08T11:16:45;29.50;99.90
2465;DHT22;1244;54.326;10.074;2023-07-08T11:19:23;29.90;99.90
2465;DHT22;1244;54.326;10.074;2023-07-08T11:21:53;30.60;99.90
2465;DHT22;1244;54.326;10.074;2023-07-08T11:24:25;31.00;99.90
2465;DHT22;1244;54.326;10.074;2023-07-08T11:26:57;30.20;99.90
2465;DHT22;1244;54.326;10.074;2023-07-08T11:29:39;30.80;99.90
2465;DHT22;1244;54.326;10.074;2023-07-08T11:32:06;31.30;99.90
2465;DHT22;1244;54.326;10.074;2023-07-08T11:34:36;31.20;99.90
2465;DHT22;1244;54.326;10.074;2023-07-08T11:37:03;31.10;99.90
2465;DHT22;1244;54.326;10.074;2023-07-08T11:39:40;31.40;99.90
2465;DHT22;1244;54.326;10.074;2023-07-08T11:42:17;31.20;99.90
2465;DHT22;1244;54.326;10.074;2023-07-08T11:44:46;31.30;99.90
2465;DHT22;1244;54.326;10.074;2023-07-08T11:47:19;31.60;99.90
2465;DHT22;1244;54.326;10.074;2023-07-08T11:49:46;31.80;97.80
2465;DHT22;1244;54.326;10.074;2023-07-08T11:52:17;31.50;98.80
2465;DHT22;1244;54.326;10.074;2023-07-08T11:54:46;32.00;99.50
2465;DHT22;1244;54.326;10.074;2023-07-08T11:57:24;32.10;98.80
2465;DHT22;1244;54.326;10.074;2023-07-08T12:00:11;32.30;97.40
2465;DHT22;1244;54.326;10.074;2023-07-08T12:02:57;32.10;96.60
2465;DHT22;1244;54.326;10.074;2023-07-08T12:05:34;32.20;96.30
2465;DHT22;1244;54.326;10.074;2023-07-08T12:08:01;32.20;98.10
2465;DHT22;1244;54.326;10.074;2023-07-08T12:10:36;32.10;97.00
2465;DHT22;1244;54.326;10.074;2023-07-08T12:13:03;32.60;96.50
2465;DHT22;1244;54.326;10.074;2023-07-08T12:15:31;32.10;95.10
2465;DHT22;1244;54.326;10.074;2023-07-08T12:18:04;32.40;97.00
2465;DHT22;1244;54.326;10.074;2023-07-08T12:20:35;32.50;95.30
2465;DHT22;1244;54.326;10.074;2023-07-08T12:23:01;32.20;92.80
2465;DHT22;1244;54.326;10.074;2023-07-08T12:25:30;32.30;95.00
2465;DHT22;1244;54.326;10.074;2023-07-08T12:27:57;32.70;96.50
2465;DHT22;1244;54.326;10.074;2023-07-08T12:30:23;32.20;91.80
2465;DHT22;1244;54.326;10.074;2023-07-08T12:32:51;31.80;92.00
2465;DHT22;1244;54.326;10.074;2023-07-08T12:35:33;32.80;93.90
2465;DHT22;1244;54.326;10.074;2023-07-08T12:38:11;32.20;93.00
2465;DHT22;1244;54.326;10.074;2023-07-08T12:40:41;32.60;95.20
2465;DHT22;1244;54.326;10.074;2023-07-08T12:43:09;32.40;92.30
2465;DHT22;1244;54.326;10.074;2023-07-08T12:45:36;32.60;94.20
2465;DHT22;1244;54.326;10.074;2023-07-08T12:48:02;32.40;93.50
2465;DHT22;1244;54.326;10.074;2023-07-08T12:50:28;32.80;96.10
2465;DHT22;1244;54.326;10.074;2023-07-08T12:52:54;32.70;96.50
2465;DHT22;1244;54.326;10.074;2023-07-08T12:55:19;32.90;95.90
2465;DHT22;1244;54.326;10.074;2023-07-08T12:57:47;32.50;95.80
2465;DHT22;1244;54.326;10.074;2023-07-08T13:00:29;32.20;95.40
2465;DHT22;1244;54.326;10.074;2023-07-08T13:02:59;32.40;96.80
2465;DHT22;1244;54.326;10.074;2023-07-08T13:05:26;32.60;95.90
2465;DHT22;1244;54.326;10.074;2023-07-08T13:07:52;32.20;96.30
2465;DHT22;1244;54.326;10.074;2023-07-08T13:10:20;31.90;96.00
2465;DHT22;1244;54.326;10.074;2023-07-08T13:12:48;31.40;95.90
2465;DHT22;1244;54.326;10.074;2023-07-08T13:15:22;31.30;95.00
2465;DHT22;1244;54.326;10.074;2023-07-08T13:17:48;31.20;95.10
2465;DHT22;1244;54.326;10.074;2023-07-08T13:20:15;31.10;94.90
2465;DHT22;1244;54.326;10.074;2023-07-08T13:22:42;30.90;96.30
2465;DHT22;1244;54.326;10.074;2023-07-08T13:25:15;31.00;97.20
2465;DHT22;1244;54.326;10.074;2023-07-08T13:27:41;30.60;96.60
2465;DHT22;1244;54.326;10.074;2023-07-08T13:30:18;30.70;95.60
2465;DHT22;1244;54.326;10.074;2023-07-08T13:32:44;30.20;94.90
2465;DHT22;1244;54.326;10.074;2023-07-08T13:38:01;30.20;95.50
2465;DHT22;1244;54.326;10.074;2023-07-08T13:40:28;29.80;96.60
2465;DHT22;1244;54.326;10.074;2023-07-08T13:42:54;29.70;96.30
2465;DHT22;1244;54.326;10.074;2023-07-08T13:45:24;29.70;97.00
2465;DHT22;1244;54.326;10.074;2023-07-08T13:48:12;29.70;97.30
2465;DHT22;1244;54.326;10.074;2023-07-08T13:50:46;29.80;95.70
2465;DHT22;1244;54.326;10.074;2023-07-08T13:53:45;30.00;96.50
2465;DHT22;1244;54.326;10.074;2023-07-08T13:56:32;30.20;96.70
2465;DHT22;1244;54.326;10.074;2023-07-08T13:59:05;29.90;97.70
2465;DHT22;1244;54.326;10.074;2023-07-08T14:01:32;29.70;96.50
2465;DHT22;1244;54.326;10.074;2023-07-08T14:03:58;29.70;96.30
2465;DHT22;1244;54.326;10.074;2023-07-08T14:06:31;29.80;97.80
2465;DHT22;1244;54.326;10.074;2023-07-08T14:08:58;29.90;95.40
2465;DHT22;1244;54.326;10.074;2023-07-08T14:11:24;29.80;95.10
2465;DHT22;1244;54.326;10.074;2023-07-08T14:13:50;29.00;94.90
2465;DHT22;1244;54.326;10.074;2023-07-08T14:16:27;29.20;96.10
2465;DHT22;1244;54.326;10.074;2023-07-08T14:18:55;29.50;97.30
2465;DHT22;1244;54.326;10.074;2023-07-08T14:21:21;29.20;94.90
2465;DHT22;1244;54.326;10.074;2023-07-08T14:23:47;29.40;96.20
2465;DHT22;1244;54.326;10.074;2023-07-08T14:26:12;29.20;96.20
2465;DHT22;1244;54.326;10.074;2023-07-08T14:28:38;29.20;97.50
2465;DHT22;1244;54.326;10.074;2023-07-08T14:31:09;29.30;97.20
2465;DHT22;1244;54.326;10.074;2023-07-08T14:33:35;29.40;96.50
2465;DHT22;1244;54.326;10.074;2023-07-08T14:36:01;29.30;96.30
2465;DHT22;1244;54.326;10.074;2023-07-08T14:38:26;29.10;96.40
2465;DHT22;1244;54.326;10.074;2023-07-08T14:40:52;29.20;98.30
2465;DHT22;1244;54.326;10.074;2023-07-08T14:43:30;29.00;95.60
2465;DHT22;1244;54.326;10.074;2023-07-08T14:45:58;29.10;97.50
2465;DHT22;1244;54.326;10.074;2023-07-08T14:48:27;29.20;97.70
2465;DHT22;1244;54.326;10.074;2023-07-08T14:50:52;29.10;97.80
2465;DHT22;1244;54.326;10.074;2023-07-08T14:53:18;29.10;97.00
2465;DHT22;1244;54.326;10.074;2023-07-08T14:55:46;29.00;98.10
2465;DHT22;1244;54.326;10.074;2023-07-08T14:58:33;28.80;98.00
2465;DHT22;1244;54.326;10.074;2023-07-08T15:00:59;28.90;96.80
2465;DHT22;1244;54.326;10.074;2023-07-08T15:03:28;29.00;97.90
2465;DHT22;1244;54.326;10.074;2023-07-08T15:05:53;29.10;96.80
2465;DHT22;1244;54.326;10.074;2023-07-08T15:08:19;28.90;96.50
2465;DHT22;1244;54.326;10.074;2023-07-08T15:10:48;28.80;95.20
2465;DHT22;1244;54.326;10.074;2023-07-08T15:13:14;28.70;96.20
2465;DHT22;1244;54.326;10.074;2023-07-08T15:15:40;28.60;97.80
2465;DHT22;1244;54.326;10.074;2023-07-08T15:18:15;28.30;96.50
2465;DHT22;1244;54.326;10.074;2023-07-08T15:20:41;28.30;96.80
2465;DHT22;1244;54.326;10.074;2023-07-08T15:23:07;28.30;97.90
2465;DHT22;1244;54.326;10.074;2023-07-08T15:25:33;28.20;97.30
2465;DHT22;1244;54.326;10.074;2023-07-08T15:28:01;28.20;96.80
2465;DHT22;1244;54.326;10.074;2023-07-08T15:30:28;28.10;97.10
2465;DHT22;1244;54.326;10.074;2023-07-08T15:32:55;27.80;95.00
2465;DHT22;1244;54.326;10.074;2023-07-08T15:35:23;27.80;94.70
2465;DHT22;1244;54.326;10.074;2023-07-08T15:37:56;27.60;95.50
2465;DHT22;1244;54.326;10.074;2023-07-08T15:40:23;27.50;95.00
2465;DHT22;1244;54.326;10.074;2023-07-08T15:42:54;27.60;95.10
2465;DHT22;1244;54.326;10.074;2023-07-08T15:45:23;27.50;96.80
2465;DHT22;1244;54.326;10.074;2023-07-08T15:47:50;27.60;96.70
2465;DHT22;1244;54.326;10.074;2023-07-08T15:50:19;27.60;96.50
2465;DHT22;1244;54.326;10.074;2023-07-08T15:52:45;27.40;97.00
2465;DHT22;1244;54.326;10.074;2023-07-08T15:55:12;27.30;97.10
2465;DHT22;1244;54.326;10.074;2023-07-08T15:57:50;27.00;97.80
2465;DHT22;1244;54.326;10.074;2023-07-08T16:00:21;27.10;98.30
2465;DHT22;1244;54.326;10.074;2023-07-08T16:02:48;26.90;99.10
2465;DHT22;1244;54.326;10.074;2023-07-08T16:05:16;26.90;97.90
2465;DHT22;1244;54.326;10.074;2023-07-08T16:07:42;27.00;99.10
2465;DHT22;1244;54.326;10.074;2023-07-08T16:10:08;26.90;98.80
2465;DHT22;1244;54.326;10.074;2023-07-08T16:12:34;26.60;98.00
2465;DHT22;1244;54.326;10.074;2023-07-08T16:15:00;26.40;97.70
2465;DHT22;1244;54.326;10.074;2023-07-08T16:17:26;26.40;97.90
2465;DHT22;1244;54.326;10.074;2023-07-08T16:19:53;26.30;96.00
2465;DHT22;1244;54.326;10.074;2023-07-08T16:22:18;26.20;96.80
2465;DHT22;1244;54.326;10.074;2023-07-08T16:24:44;26.00;97.20
2465;DHT22;1244;54.326;10.074;2023-07-08T16:27:10;26.10;96.80
2465;DHT22;1244;54.326;10.074;2023-07-08T16:29:36;26.00;97.40
2465;DHT22;1244;54.326;10.074;2023-07-08T16:32:01;25.90;98.40